sensor_id;sensor_type;location;lat;lon;timestamp;pressure;altitude;pressure_sealevel;temperature;humidity
26859;BME280;14429;48.346;16.338;2023-02-17T00:01:35;100675.38;;;11.04;49.88
26859;BME280;14429;48.346;16.338;2023-02-17T00:04:01;100682.22;;;10.78;49.87
26859;BME280;14429;48.346;16.338;2023-02-17T00:06:28;100686.41;;;10.99;49.94
26859;BME280;14429;48.346;16.338;2023-02-17T00:08:54;100688.56;;;11.07;49.60
26859;BME280;14429;48.346;16.338;2023-02-17T00:11:21;100676.78;;;10.79;49.85
26859;BME280;14429;48.346;16.338;2023-02-17T00:13:47;100675.91;;;11.11;49.58
26859;BME280;14429;48.346;16.338;2023-02-17T00:16:16;100663.69;;;11.07;49.61
26859;BME280;14429;48.346;16.338;2023-02-17T00:18:42;100665.66;;;11.03;49.64
26859;BME280;14429;48.346;16.338;2023-02-17T00:21:12;100670.22;;;11.17;49.32
26859;BME280;14429;48.346;16.338;2023-02-17T00:23:38;100671.16;;;11.01;49.57
26859;BME280;14429;48.346;16.338;2023-02-17T00:26:04;100667.81;;;11.12;49.55
26859;BME280;14429;48.346;16.338;2023-02-17T00:28:31;100675.91;;;11.26;49.08
26859;BME280;14429;48.346;16.338;2023-02-17T00:30:56;100678.16;;;11.18;49.35
26859;BME280;14429;48.346;16.338;2023-02-17T00:33:21;100670.59;;;11.26;49.13
26859;BME280;14429;48.346;16.338;2023-02-17T00:35:47;100670.91;;;11.05;49.41
26859;BME280;14429;48.346;16.338;2023-02-17T00:38:12;100665.72;;;10.87;49.88
26859;BME280;14429;48.346;16.338;2023-02-17T00:40:38;100655.31;;;10.98;49.79
26859;BME280;14429;48.346;16.338;2023-02-17T00:43:03;100661.28;;;11.03;49.71
26859;BME280;14429;48.346;16.338;2023-02-17T00:45:30;100660.59;;;10.99;49.76
26859;BME280;14429;48.346;16.338;2023-02-17T00:47:55;100658.25;;;11.24;49.25
26859;BME280;14429;48.346;16.338;2023-02-17T00:50:21;100648.69;;;11.04;49.57
26859;BME280;14429;48.346;16.338;2023-02-17T00:52:46;100657.41;;;11.08;49.54
26859;BME280;14429;48.346;16.338;2023-02-17T00:55:12;100647.50;;;11.25;49.12
26859;BME280;14429;48.346;16.338;2023-02-17T00:57:37;100660.53;;;10.69;49.14
26859;BME280;14429;48.346;16.338;2023-02-17T01:00:03;100644.38;;;10.87;50.14
26859;BME280;14429;48.346;16.338;2023-02-17T01:02:30;100652.47;;;10.85;49.97
26859;BME280;14429;48.346;16.338;2023-02-17T01:04:56;100642.38;;;10.75;49.98
26859;BME280;14429;48.346;16.338;2023-02-17T01:07:21;100643.19;;;11.07;49.73
26859;BME280;14429;48.346;16.338;2023-02-17T01:09:47;100639.63;;;10.45;50.09
26859;BME280;14429;48.346;16.338;2023-02-17T01:12:12;100635.06;;;10.78;50.31
26859;BME280;14429;48.346;16.338;2023-02-17T01:14:38;100630.44;;;10.97;49.92
26859;BME280;14429;48.346;16.338;2023-02-17T01:17:03;100635.72;;;10.99;49.92
26859;BME280;14429;48.346;16.338;2023-02-17T01:19:30;100634.75;;;11.00;49.70
26859;BME280;14429;48.346;16.338;2023-02-17T01:21:55;100635.44;;;11.18;49.23
26859;BME280;14429;48.346;16.338;2023-02-17T01:24:21;100635.94;;;11.09;49.60
26859;BME280;14429;48.346;16.338;2023-02-17T01:26:46;100634.06;;;11.11;49.54
26859;BME280;14429;48.346;16.338;2023-02-17T01:29:12;100622.69;;;11.23;49.22
26859;BME280;14429;48.346;16.338;2023-02-17T01:31:38;100615.06;;;11.17;49.18
26859;BME280;14429;48.346;16.338;2023-02-17T01:34:04;100608.59;;;11.21;49.22
26859;BME280;14429;48.346;16.338;2023-02-17T01:36:31;100626.38;;;11.21;49.20
26859;BME280;14429;48.346;16.338;2023-02-17T01:38:57;100624.78;;;11.03;49.27
26859;BME280;14429;48.346;16.338;2023-02-17T01:41:25;100623.66;;;11.22;49.13
26859;BME280;14429;48.346;16.338;2023-02-17T01:44:05;100622.38;;;10.99;48.05
26859;BME280;14429;48.346;16.338;2023-02-17T01:46:31;100613.25;;;11.18;49.33
26859;BME280;14429;48.346;16.338;2023-02-17T01:48:56;100615.09;;;11.31;48.85
26859;BME280;14429;48.346;16.338;2023-02-17T01:51:25;100619.94;;;10.94;49.20
26859;BME280;14429;48.346;16.338;2023-02-17T01:53:58;100614.25;;;11.15;49.35
26859;BME280;14429;48.346;16.338;2023-02-17T01:56:27;100608.25;;;11.12;49.26
26859;BME280;14429;48.346;16.338;2023-02-17T01:58:56;100610.56;;;11.03;49.45
26859;BME280;14429;48.346;16.338;2023-02-17T02:01:24;100613.22;;;11.33;48.94
26859;BME280;14429;48.346;16.338;2023-02-17T02:03:51;100611.16;;;11.23;48.89
26859;BME280;14429;48.346;16.338;2023-02-17T02:06:19;100612.88;;;11.08;49.48
26859;BME280;14429;48.346;16.338;2023-02-17T02:08:50;100603.75;;;11.43;48.65
26859;BME280;14429;48.346;16.338;2023-02-17T02:11:19;100598.41;;;11.28;48.97
26859;BME280;14429;48.346;16.338;2023-02-17T02:13:45;100593.91;;;11.28;49.28
26859;BME280;14429;48.346;16.338;2023-02-17T02:16:15;100592.16;;;11.29;48.98
26859;BME280;14429;48.346;16.338;2023-02-17T02:18:53;100580.84;;;11.08;49.49
26859;BME280;14429;48.346;16.338;2023-02-17T02:21:41;100567.22;;;11.28;49.10
26859;BME280;14429;48.346;16.338;2023-02-17T02:24:27;100577.91;;;11.28;49.04
26859;BME280;14429;48.346;16.338;2023-02-17T02:33:08;100558.22;;;11.15;49.34
26859;BME280;14429;48.346;16.338;2023-02-17T02:35:46;100551.59;;;11.22;49.09
26859;BME280;14429;48.346;16.338;2023-02-17T02:38:18;100559.84;;;11.18;49.21
26859;BME280;14429;48.346;16.338;2023-02-17T02:40:47;100558.28;;;11.29;49.07
26859;BME280;14429;48.346;16.338;2023-02-17T02:43:14;100564.38;;;11.31;48.93
26859;BME280;14429;48.346;16.338;2023-02-17T02:45:40;100559.66;;;11.21;49.10
26859;BME280;14429;48.346;16.338;2023-02-17T02:48:07;100559.84;;;11.33;48.77
26859;BME280;14429;48.346;16.338;2023-02-17T02:50:43;100550.53;;;11.09;49.24
26859;BME280;14429;48.346;16.338;2023-02-17T02:53:29;100556.34;;;11.17;49.24
26859;BME280;14429;48.346;16.338;2023-02-17T02:56:05;100555.44;;;11.32;48.99
26859;BME280;14429;48.346;16.338;2023-02-17T02:58:43;100567.59;;;11.22;49.06
26859;BME280;14429;48.346;16.338;2023-02-17T03:01:16;100561.53;;;11.34;48.88
26859;BME280;14429;48.346;16.338;2023-02-17T03:03:49;100558.81;;;11.20;48.98
26859;BME280;14429;48.346;16.338;2023-02-17T03:06:25;100554.41;;;11.19;49.12
26859;BME280;14429;48.346;16.338;2023-02-17T03:08:56;100547.44;;;11.32;48.73
26859;BME280;14429;48.346;16.338;2023-02-17T03:11:25;100547.44;;;11.32;48.87
26859;BME280;14429;48.346;16.338;2023-02-17T03:13:50;100556.38;;;11.31;48.91
26859;BME280;14429;48.346;16.338;2023-02-17T03:16:16;100558.47;;;11.41;48.66
26859;BME280;14429;48.346;16.338;2023-02-17T03:18:41;100561.94;;;11.43;48.59
26859;BME280;14429;48.346;16.338;2023-02-17T03:21:12;100566.59;;;11.40;48.67
26859;BME280;14429;48.346;16.338;2023-02-17T03:23:38;100561.72;;;11.46;48.53
26859;BME280;14429;48.346;16.338;2023-02-17T03:26:04;100562.09;;;11.25;48.95
26859;BME280;14429;48.346;16.338;2023-02-17T03:28:29;100570.16;;;11.39;48.79
26859;BME280;14429;48.346;16.338;2023-02-17T03:30:55;100558.56;;;11.09;48.58
26859;BME280;14429;48.346;16.338;2023-02-17T03:33:20;100557.78;;;11.07;49.31
26859;BME280;14429;48.346;16.338;2023-02-17T03:35:46;100552.03;;;10.22;48.66
26859;BME280;14429;48.346;16.338;2023-02-17T03:38:12;100562.63;;;10.86;50.11
26859;BME280;14429;48.346;16.338;2023-02-17T03:40:38;100565.66;;;10.80;50.11
26859;BME280;14429;48.346;16.338;2023-02-17T03:43:03;100569.50;;;11.05;49.54
26859;BME280;14429;48.346;16.338;2023-02-17T03:45:29;100570.34;;;10.75;49.77
26859;BME280;14429;48.346;16.338;2023-02-17T03:47:54;100563.31;;;11.04;49.78
26859;BME280;14429;48.346;16.338;2023-02-17T03:50:20;100567.09;;;11.16;49.39
26859;BME280;14429;48.346;16.338;2023-02-17T03:52:45;100563.31;;;10.89;49.76
26859;BME280;14429;48.346;16.338;2023-02-17T03:55:12;100572.06;;;10.76;49.78
26859;BME280;14429;48.346;16.338;2023-02-17T03:57:37;100571.19;;;10.60;49.59
26859;BME280;14429;48.346;16.338;2023-02-17T04:00:03;100561.34;;;10.30;50.08
26859;BME280;14429;48.346;16.338;2023-02-17T04:02:29;100567.91;;;9.75;50.30
26859;BME280;14429;48.346;16.338;2023-02-17T04:04:54;100561.97;;;10.03;52.49
26859;BME280;14429;48.346;16.338;2023-02-17T04:07:20;100561.03;;;9.88;52.89
26859;BME280;14429;48.346;16.338;2023-02-17T04:09:45;100553.16;;;10.01;50.83
26859;BME280;14429;48.346;16.338;2023-02-17T04:12:12;100553.06;;;9.88;51.29
26859;BME280;14429;48.346;16.338;2023-02-17T04:14:38;100553.72;;;10.40;51.50
26859;BME280;14429;48.346;16.338;2023-02-17T04:17:03;100549.97;;;10.27;51.55
26859;BME280;14429;48.346;16.338;2023-02-17T04:19:29;100555.47;;;9.59;52.69
26859;BME280;14429;48.346;16.338;2023-02-17T04:21:54;100556.47;;;10.06;52.45
26859;BME280;14429;48.346;16.338;2023-02-17T04:24:19;100549.84;;;10.45;51.22
26859;BME280;14429;48.346;16.338;2023-02-17T04:26:45;100556.47;;;10.06;52.10
26859;BME280;14429;48.346;16.338;2023-02-17T04:29:12;100550.22;;;10.54;51.39
26859;BME280;14429;48.346;16.338;2023-02-17T04:31:37;100552.03;;;10.22;51.57
26859;BME280;14429;48.346;16.338;2023-02-17T04:34:03;100539.41;;;10.25;51.86
26859;BME280;14429;48.346;16.338;2023-02-17T04:36:28;100539.25;;;9.96;51.22
26859;BME280;14429;48.346;16.338;2023-02-17T04:38:53;100553.78;;;9.23;54.43
26859;BME280;14429;48.346;16.338;2023-02-17T04:41:19;100551.50;;;8.44;55.84
26859;BME280;14429;48.346;16.338;2023-02-17T04:43:44;100551.59;;;7.85;58.28
26859;BME280;14429;48.346;16.338;2023-02-17T04:46:11;100549.88;;;8.42;57.97
26859;BME280;14429;48.346;16.338;2023-02-17T04:48:37;100548.56;;;8.87;55.15
26859;BME280;14429;48.346;16.338;2023-02-17T04:51:02;100545.50;;;9.29;55.24
26859;BME280;14429;48.346;16.338;2023-02-17T04:53:28;100539.16;;;8.43;56.47
26859;BME280;14429;48.346;16.338;2023-02-17T04:55:53;100545.25;;;8.82;56.56
26859;BME280;14429;48.346;16.338;2023-02-17T04:58:20;100547.28;;;8.93;56.12
26859;BME280;14429;48.346;16.338;2023-02-17T05:00:46;100547.50;;;8.54;57.41
26859;BME280;14429;48.346;16.338;2023-02-17T05:03:14;100546.59;;;9.25;55.48
26859;BME280;14429;48.346;16.338;2023-02-17T05:05:39;100537.56;;;8.76;55.56
26859;BME280;14429;48.346;16.338;2023-02-17T05:08:05;100537.53;;;9.29;54.49
26859;BME280;14429;48.346;16.338;2023-02-17T05:10:30;100528.28;;;9.36;54.49
26859;BME280;14429;48.346;16.338;2023-02-17T05:12:55;100523.88;;;9.68;54.09
26859;BME280;14429;48.346;16.338;2023-02-17T05:15:21;100510.38;;;10.04;53.09
26859;BME280;14429;48.346;16.338;2023-02-17T05:17:46;100516.31;;;9.61;54.48
26859;BME280;14429;48.346;16.338;2023-02-17T05:20:13;100524.03;;;8.98;56.24
26859;BME280;14429;48.346;16.338;2023-02-17T05:22:39;100508.41;;;9.42;54.95
26859;BME280;14429;48.346;16.338;2023-02-17T05:25:05;100507.72;;;8.88;55.36
26859;BME280;14429;48.346;16.338;2023-02-17T05:27:30;100501.00;;;8.62;57.50
26859;BME280;14429;48.346;16.338;2023-02-17T05:29:56;100497.78;;;8.56;56.74
26859;BME280;14429;48.346;16.338;2023-02-17T05:32:22;100502.78;;;8.27;58.07
26859;BME280;14429;48.346;16.338;2023-02-17T05:34:47;100499.66;;;8.18;59.01
26859;BME280;14429;48.346;16.338;2023-02-17T05:37:14;100505.47;;;8.62;58.02
26859;BME280;14429;48.346;16.338;2023-02-17T05:39:40;100509.00;;;7.88;59.55
26859;BME280;14429;48.346;16.338;2023-02-17T05:42:05;100506.47;;;7.85;59.73
26859;BME280;14429;48.346;16.338;2023-02-17T05:44:31;100495.97;;;8.02;59.43
26859;BME280;14429;48.346;16.338;2023-02-17T05:46:56;100495.44;;;8.50;57.28
26859;BME280;14429;48.346;16.338;2023-02-17T05:49:22;100489.47;;;9.32;55.89
26859;BME280;14429;48.346;16.338;2023-02-17T05:51:47;100493.22;;;9.61;53.61
26859;BME280;14429;48.346;16.338;2023-02-17T05:54:14;100486.56;;;10.49;52.20
26859;BME280;14429;48.346;16.338;2023-02-17T05:56:39;100498.56;;;10.10;50.69
26859;BME280;14429;48.346;16.338;2023-02-17T05:59:05;100502.06;;;10.73;51.53
26859;BME280;14429;48.346;16.338;2023-02-17T06:01:30;100499.44;;;10.86;50.78
26859;BME280;14429;48.346;16.338;2023-02-17T06:03:55;100496.16;;;11.12;49.98
26859;BME280;14429;48.346;16.338;2023-02-17T06:06:21;100503.81;;;11.18;48.41
26859;BME280;14429;48.346;16.338;2023-02-17T06:08:46;100496.28;;;11.39;49.25
26859;BME280;14429;48.346;16.338;2023-02-17T06:11:13;100494.72;;;11.51;48.74
26859;BME280;14429;48.346;16.338;2023-02-17T06:13:39;100495.81;;;11.18;48.59
26859;BME280;14429;48.346;16.338;2023-02-17T06:16:05;100502.13;;;11.46;48.63
26859;BME280;14429;48.346;16.338;2023-02-17T06:18:30;100494.44;;;11.69;48.12
26859;BME280;14429;48.346;16.338;2023-02-17T06:20:56;100503.31;;;11.56;48.31
26859;BME280;14429;48.346;16.338;2023-02-17T06:23:22;100500.53;;;11.57;47.39
26859;BME280;14429;48.346;16.338;2023-02-17T06:25:48;100495.84;;;11.60;47.65
26859;BME280;14429;48.346;16.338;2023-02-17T06:28:14;100500.06;;;11.51;48.25
26859;BME280;14429;48.346;16.338;2023-02-17T06:30:40;100499.59;;;11.72;47.11
26859;BME280;14429;48.346;16.338;2023-02-17T06:33:05;100493.97;;;11.62;47.59
26859;BME280;14429;48.346;16.338;2023-02-17T06:35:31;100496.94;;;11.58;48.39
26859;BME280;14429;48.346;16.338;2023-02-17T06:37:57;100490.94;;;11.82;47.64
26859;BME280;14429;48.346;16.338;2023-02-17T06:40:23;100497.53;;;11.77;47.75
26859;BME280;14429;48.346;16.338;2023-02-17T06:42:48;100498.84;;;11.70;47.95
26859;BME280;14429;48.346;16.338;2023-02-17T06:45:15;100504.97;;;11.85;47.67
26859;BME280;14429;48.346;16.338;2023-02-17T06:47:41;100501.41;;;11.71;47.83
26859;BME280;14429;48.346;16.338;2023-02-17T06:50:08;100488.06;;;11.71;47.96
26859;BME280;14429;48.346;16.338;2023-02-17T06:52:33;100489.81;;;11.86;47.54
26859;BME280;14429;48.346;16.338;2023-02-17T06:54:59;100465.16;;;11.67;47.54
26859;BME280;14429;48.346;16.338;2023-02-17T06:57:24;100475.13;;;11.93;47.45
26859;BME280;14429;48.346;16.338;2023-02-17T06:59:50;100475.41;;;11.88;47.45
26859;BME280;14429;48.346;16.338;2023-02-17T07:02:16;100476.69;;;11.68;47.75
26859;BME280;14429;48.346;16.338;2023-02-17T07:04:42;100470.91;;;11.89;47.59
26859;BME280;14429;48.346;16.338;2023-02-17T07:07:09;100478.25;;;11.85;47.34
26859;BME280;14429;48.346;16.338;2023-02-17T07:09:35;100474.59;;;11.73;47.83
26859;BME280;14429;48.346;16.338;2023-02-17T07:12:01;100473.97;;;11.97;47.28
26859;BME280;14429;48.346;16.338;2023-02-17T07:14:27;100461.25;;;11.86;47.41
26859;BME280;14429;48.346;16.338;2023-02-17T07:16:53;100464.22;;;11.82;47.58
26859;BME280;14429;48.346;16.338;2023-02-17T07:19:20;100457.66;;;12.01;47.11
26859;BME280;14429;48.346;16.338;2023-02-17T07:21:45;100453.91;;;11.90;47.34
26859;BME280;14429;48.346;16.338;2023-02-17T07:24:11;100454.22;;;11.99;47.17
26859;BME280;14429;48.346;16.338;2023-02-17T07:26:37;100453.44;;;11.97;46.60
26859;BME280;14429;48.346;16.338;2023-02-17T07:29:04;100462.97;;;11.87;47.31
26859;BME280;14429;48.346;16.338;2023-02-17T07:31:29;100461.28;;;12.00;46.94
26859;BME280;14429;48.346;16.338;2023-02-17T07:33:55;100463.66;;;12.05;46.63
26859;BME280;14429;48.346;16.338;2023-02-17T07:36:22;100458.53;;;11.88;47.28
26859;BME280;14429;48.346;16.338;2023-02-17T07:38:48;100459.66;;;11.98;47.03
26859;BME280;14429;48.346;16.338;2023-02-17T07:41:15;100450.66;;;11.99;47.01
26859;BME280;14429;48.346;16.338;2023-02-17T07:43:41;100468.44;;;11.86;47.24
26859;BME280;14429;48.346;16.338;2023-02-17T07:46:08;100454.38;;;12.10;46.25
26859;BME280;14429;48.346;16.338;2023-02-17T07:48:34;100464.63;;;12.04;46.70
26859;BME280;14429;48.346;16.338;2023-02-17T07:51:03;100461.56;;;11.96;47.12
26859;BME280;14429;48.346;16.338;2023-02-17T07:53:30;100469.56;;;12.10;46.62
26859;BME280;14429;48.346;16.338;2023-02-17T07:55:56;100471.50;;;12.08;46.21
26859;BME280;14429;48.346;16.338;2023-02-17T07:58:21;100459.94;;;12.07;46.84
26859;BME280;14429;48.346;16.338;2023-02-17T08:00:46;100468.03;;;12.19;46.54
26859;BME280;14429;48.346;16.338;2023-02-17T08:03:12;100466.34;;;12.05;46.30
26859;BME280;14429;48.346;16.338;2023-02-17T08:05:38;100469.38;;;12.12;46.76
26859;BME280;14429;48.346;16.338;2023-02-17T08:08:05;100464.03;;;12.12;46.57
26859;BME280;14429;48.346;16.338;2023-02-17T08:10:32;100466.81;;;11.97;46.96
26859;BME280;14429;48.346;16.338;2023-02-17T08:12:57;100475.69;;;12.12;45.79
26859;BME280;14429;48.346;16.338;2023-02-17T08:15:23;100471.97;;;12.14;46.70
26859;BME280;14429;48.346;16.338;2023-02-17T08:17:48;100468.81;;;11.94;45.98
26859;BME280;14429;48.346;16.338;2023-02-17T08:20:14;100467.94;;;12.21;46.66
26859;BME280;14429;48.346;16.338;2023-02-17T08:22:39;100461.06;;;12.17;46.60
26859;BME280;14429;48.346;16.338;2023-02-17T08:25:05;100469.00;;;11.91;47.14
26859;BME280;14429;48.346;16.338;2023-02-17T08:27:32;100463.66;;;12.18;46.70
26859;BME280;14429;48.346;16.338;2023-02-17T08:29:58;100463.06;;;12.13;46.63
26859;BME280;14429;48.346;16.338;2023-02-17T08:32:23;100462.31;;;11.84;47.46
26859;BME280;14429;48.346;16.338;2023-02-17T08:34:49;100462.59;;;12.21;46.64
26859;BME280;14429;48.346;16.338;2023-02-17T08:37:14;100459.34;;;12.02;47.32
26859;BME280;14429;48.346;16.338;2023-02-17T08:39:40;100467.28;;;11.90;47.51
26859;BME280;14429;48.346;16.338;2023-02-17T08:42:05;100449.16;;;12.22;46.76
26859;BME280;14429;48.346;16.338;2023-02-17T08:44:35;100460.41;;;12.13;47.04
26859;BME280;14429;48.346;16.338;2023-02-17T08:47:00;100460.31;;;12.01;47.47
26859;BME280;14429;48.346;16.338;2023-02-17T08:49:26;100460.59;;;12.24;47.51
26859;BME280;14429;48.346;16.338;2023-02-17T08:51:51;100465.47;;;12.04;47.30
26859;BME280;14429;48.346;16.338;2023-02-17T08:54:17;100469.28;;;12.00;47.69
26859;BME280;14429;48.346;16.338;2023-02-17T08:56:43;100469.75;;;12.20;47.37
26859;BME280;14429;48.346;16.338;2023-02-17T08:59:10;100477.81;;;12.07;47.73
26859;BME280;14429;48.346;16.338;2023-02-17T09:01:37;100474.34;;;12.05;47.98
26859;BME280;14429;48.346;16.338;2023-02-17T09:04:05;100470.91;;;12.16;49.74
26859;BME280;14429;48.346;16.338;2023-02-17T09:06:32;100467.19;;;12.05;48.15
26859;BME280;14429;48.346;16.338;2023-02-17T09:08:58;100467.09;;;12.20;48.07
26859;BME280;14429;48.346;16.338;2023-02-17T09:11:23;100460.03;;;12.19;49.80
26859;BME280;14429;48.346;16.338;2023-02-17T09:13:49;100462.69;;;12.06;47.96
26859;BME280;14429;48.346;16.338;2023-02-17T09:16:14;100457.06;;;12.24;47.62
26859;BME280;14429;48.346;16.338;2023-02-17T09:18:41;100454.50;;;12.22;47.98
26859;BME280;14429;48.346;16.338;2023-02-17T09:21:08;100453.16;;;12.02;48.26
26859;BME280;14429;48.346;16.338;2023-02-17T09:23:34;100446.97;;;12.15;51.26
26859;BME280;14429;48.346;16.338;2023-02-17T09:26:01;100448.00;;;12.12;50.76
26859;BME280;14429;48.346;16.338;2023-02-17T09:28:26;100436.75;;;11.94;51.02
26859;BME280;14429;48.346;16.338;2023-02-17T09:30:51;100445.69;;;12.20;50.07
26859;BME280;14429;48.346;16.338;2023-02-17T09:33:17;100436.75;;;12.21;49.78
26859;BME280;14429;48.346;16.338;2023-02-17T09:35:44;100434.25;;;12.05;50.13
26859;BME280;14429;48.346;16.338;2023-02-17T09:38:09;100444.91;;;12.32;49.52
26859;BME280;14429;48.346;16.338;2023-02-17T09:40:39;100440.28;;;12.22;49.64
26859;BME280;14429;48.346;16.338;2023-02-17T09:43:11;100438.06;;;12.01;50.14
26859;BME280;14429;48.346;16.338;2023-02-17T09:45:38;100436.53;;;12.24;49.88
26859;BME280;14429;48.346;16.338;2023-02-17T09:48:07;100431.78;;;12.15;49.92
26859;BME280;14429;48.346;16.338;2023-02-17T09:50:40;100431.94;;;11.99;50.46
26859;BME280;14429;48.346;16.338;2023-02-17T09:53:14;100437.66;;;12.34;49.46
26859;BME280;14429;48.346;16.338;2023-02-17T09:55:44;100433.47;;;12.16;53.26
26859;BME280;14429;48.346;16.338;2023-02-17T09:58:14;100427.47;;;12.13;50.01
26859;BME280;14429;48.346;16.338;2023-02-17T10:00:45;100441.50;;;12.30;49.78
26859;BME280;14429;48.346;16.338;2023-02-17T10:03:15;100435.41;;;12.14;50.95
26859;BME280;14429;48.346;16.338;2023-02-17T10:05:47;100431.41;;;12.08;55.99
26859;BME280;14429;48.346;16.338;2023-02-17T10:08:21;100435.66;;;12.24;51.52
26859;BME280;14429;48.346;16.338;2023-02-17T10:10:50;100456.19;;;12.10;50.13
26859;BME280;14429;48.346;16.338;2023-02-17T10:13:20;100438.91;;;12.29;49.70
26859;BME280;14429;48.346;16.338;2023-02-17T10:15:50;100431.41;;;12.21;50.08
26859;BME280;14429;48.346;16.338;2023-02-17T10:18:20;100416.50;;;12.04;50.30
26859;BME280;14429;48.346;16.338;2023-02-17T10:20:50;100417.44;;;12.30;49.70
26859;BME280;14429;48.346;16.338;2023-02-17T10:23:21;100411.53;;;12.25;50.12
26859;BME280;14429;48.346;16.338;2023-02-17T10:26:00;100412.31;;;12.00;50.66
26859;BME280;14429;48.346;16.338;2023-02-17T10:28:40;100395.72;;;12.35;49.54
26859;BME280;14429;48.346;16.338;2023-02-17T10:31:11;100401.97;;;12.21;51.96
26859;BME280;14429;48.346;16.338;2023-02-17T10:33:44;100405.53;;;12.08;50.55
26859;BME280;14429;48.346;16.338;2023-02-17T10:36:18;100413.97;;;12.28;53.41
26859;BME280;14429;48.346;16.338;2023-02-17T10:38:50;100412.47;;;12.24;52.84
26859;BME280;14429;48.346;16.338;2023-02-17T10:41:20;100410.56;;;12.12;56.35
26859;BME280;14429;48.346;16.338;2023-02-17T10:43:46;100396.25;;;12.53;53.52
26859;BME280;14429;48.346;16.338;2023-02-17T10:46:14;100372.22;;;12.39;55.71
26859;BME280;14429;48.346;16.338;2023-02-17T10:48:44;100379.69;;;12.35;56.76
26859;BME280;14429;48.346;16.338;2023-02-17T10:51:13;100366.31;;;12.61;55.02
26859;BME280;14429;48.346;16.338;2023-02-17T10:53:40;100377.91;;;12.47;55.72
26859;BME280;14429;48.346;16.338;2023-02-17T10:56:10;100373.81;;;12.16;56.88
26859;BME280;14429;48.346;16.338;2023-02-17T10:58:45;100366.94;;;12.52;55.43
26859;BME280;14429;48.346;16.338;2023-02-17T11:01:13;100356.97;;;12.54;54.76
26859;BME280;14429;48.346;16.338;2023-02-17T11:03:39;100360.50;;;12.28;55.13
26859;BME280;14429;48.346;16.338;2023-02-17T11:06:15;100355.59;;;12.48;54.72
26859;BME280;14429;48.346;16.338;2023-02-17T11:08:44;100358.16;;;12.50;54.18
26859;BME280;14429;48.346;16.338;2023-02-17T11:11:16;100342.78;;;12.13;54.95
26859;BME280;14429;48.346;16.338;2023-02-17T11:13:56;100340.78;;;12.43;53.83
26859;BME280;14429;48.346;16.338;2023-02-17T11:16:25;100346.41;;;12.52;53.25
26859;BME280;14429;48.346;16.338;2023-02-17T11:18:52;100355.72;;;12.33;53.29
26859;BME280;14429;48.346;16.338;2023-02-17T11:21:18;100352.13;;;12.46;53.12
26859;BME280;14429;48.346;16.338;2023-02-17T11:23:47;100334.09;;;12.62;51.94
26859;BME280;14429;48.346;16.338;2023-02-17T11:26:21;100336.94;;;12.47;52.37
26859;BME280;14429;48.346;16.338;2023-02-17T11:28:48;100352.19;;;12.33;53.07
26859;BME280;14429;48.346;16.338;2023-02-17T11:31:22;100327.34;;;12.57;52.55
26859;BME280;14429;48.346;16.338;2023-02-17T11:33:48;100336.50;;;12.40;53.11
26859;BME280;14429;48.346;16.338;2023-02-17T11:36:22;100351.19;;;12.21;53.49
26859;BME280;14429;48.346;16.338;2023-02-17T11:38:48;100344.72;;;12.64;52.07
26859;BME280;14429;48.346;16.338;2023-02-17T11:41:13;100345.09;;;12.45;52.54
26859;BME280;14429;48.346;16.338;2023-02-17T11:43:50;100348.88;;;12.29;52.21
26859;BME280;14429;48.346;16.338;2023-02-17T11:46:26;100325.09;;;12.77;51.20
26859;BME280;14429;48.346;16.338;2023-02-17T11:49:03;100321.63;;;12.63;51.30
26859;BME280;14429;48.346;16.338;2023-02-17T11:51:41;100325.91;;;12.39;51.67
26859;BME280;14429;48.346;16.338;2023-02-17T11:54:18;100319.47;;;12.67;51.29
26859;BME280;14429;48.346;16.338;2023-02-17T11:56:58;100312.63;;;12.64;51.78
26859;BME280;14429;48.346;16.338;2023-02-17T11:59:35;100306.81;;;12.31;52.67
26859;BME280;14429;48.346;16.338;2023-02-17T12:02:16;100306.22;;;12.66;51.82
26859;BME280;14429;48.346;16.338;2023-02-17T12:04:53;100300.75;;;12.67;51.64
26859;BME280;14429;48.346;16.338;2023-02-17T12:07:34;100302.94;;;12.49;51.69
26859;BME280;14429;48.346;16.338;2023-02-17T12:10:05;100290.00;;;12.81;50.99
26859;BME280;14429;48.346;16.338;2023-02-17T12:12:54;100306.59;;;12.74;51.12
26859;BME280;14429;48.346;16.338;2023-02-17T12:15:36;100296.97;;;12.58;52.60
26859;BME280;14429;48.346;16.338;2023-02-17T12:18:14;100304.00;;;12.72;50.99
26859;BME280;14429;48.346;16.338;2023-02-17T12:20:49;100287.16;;;12.70;51.28
26859;BME280;14429;48.346;16.338;2023-02-17T12:23:28;100304.25;;;12.56;52.31
26859;BME280;14429;48.346;16.338;2023-02-17T12:25:56;100335.94;;;12.62;52.33
26859;BME280;14429;48.346;16.338;2023-02-17T12:29:01;100303.59;;;12.78;51.74
26859;BME280;14429;48.346;16.338;2023-02-17T12:31:55;100296.03;;;12.59;52.24
26859;BME280;14429;48.346;16.338;2023-02-17T12:34:29;100285.06;;;12.75;51.66
26859;BME280;14429;48.346;16.338;2023-02-17T12:36:57;100301.97;;;12.88;51.24
26859;BME280;14429;48.346;16.338;2023-02-17T12:39:28;100293.28;;;12.72;51.18
26859;BME280;14429;48.346;16.338;2023-02-17T12:41:58;100296.09;;;12.45;51.32
26859;BME280;14429;48.346;16.338;2023-02-17T12:44:29;100295.13;;;12.84;50.94
26859;BME280;14429;48.346;16.338;2023-02-17T12:46:59;100279.50;;;12.78;51.26
26859;BME280;14429;48.346;16.338;2023-02-17T12:49:29;100277.38;;;12.57;54.48
26859;BME280;14429;48.346;16.338;2023-02-17T12:51:58;100262.47;;;12.79;51.82